Time;durP1;ratioP1;P1;durP2;ratioP2;P2;SDS_P1;SDS_P2;PMS_P1;PMS_P2;Temp;Humidity;BMP_temperature;BMP_pressure;BME280_temperature;BME280_humidity;BME280_pressure;Samples;Min_cycle;Max_cycle;Signal;HPM_P1;HPM_P2
2022/09/19 00:01:48;;;;;;;10.48;1.70;;;;;;;14.68;65.50;100679.38;4817335;28;119973;-72
2022/09/19 00:04:17;;;;;;;20.10;2.50;;;;;;;14.64;65.96;100681.53;4850643;28;119699;-74
2022/09/19 00:06:45;;;;;;;12.23;2.07;;;;;;;14.63;66.22;100682.78;4832760;28;120224;-72
2022/09/19 00:09:14;;;;;;;9.03;2.07;;;;;;;14.61;66.47;100688.78;4835027;28;119538;-72
2022/09/19 00:11:43;;;;;;;12.60;2.20;;;;;;;14.59;66.42;100691.25;4848225;28;119870;-72
2022/09/19 00:14:13;;;;;;;19.42;2.17;;;;;;;14.56;66.30;100689.44;4850906;28;119836;-72
2022/09/19 00:16:42;;;;;;;11.98;2.38;;;;;;;14.56;66.50;100694.97;4832145;28;119538;-72
2022/09/19 00:19:10;;;;;;;13.32;2.38;;;;;;;14.53;66.82;100690.41;4834326;28;120274;-72
2022/09/19 00:21:39;;;;;;;16.88;2.67;;;;;;;14.48;66.67;100682.81;4850180;28;120139;-72
2022/09/19 00:26:57;;;;;;;11.27;2.17;;;;;;;14.48;67.09;100693.09;4829398;28;120782;-72
2022/09/19 00:29:24;;;;;;;12.43;2.30;;;;;;;14.51;66.47;100698.41;4850047;28;119654;-72
2022/09/19 00:31:52;;;;;;;23.08;2.80;;;;;;;14.48;66.44;100698.59;4846351;28;120062;-72
2022/09/19 00:34:19;;;;;;;8.77;1.98;;;;;;;14.49;66.13;100702.88;4848318;28;120485;-71
2022/09/19 00:36:46;;;;;;;16.30;2.63;;;;;;;14.45;66.70;100703.09;4849045;28;120475;-72
2022/09/19 00:39:15;;;;;;;9.07;1.90;;;;;;;14.44;65.93;100707.06;4835181;28;120544;-72
2022/09/19 00:41:41;;;;;;;12.40;2.55;;;;;;;14.41;66.11;100707.97;4831686;28;120251;-72
2022/09/19 00:44:22;;;;;;;8.40;2.20;;;;;;;14.44;67.09;100712.59;4832956;28;119397;-72
2022/09/19 00:46:53;;;;;;;26.42;3.17;;;;;;;14.44;66.91;100715.34;4847636;28;120371;-72
2022/09/19 00:49:27;;;;;;;18.27;2.58;;;;;;;14.40;66.36;100714.72;4834190;28;119707;-72
2022/09/19 00:52:00;;;;;;;15.07;2.53;;;;;;;14.41;65.99;100713.50;4843004;28;121714;-71
2022/09/19 00:54:38;;;;;;;14.15;2.00;;;;;;;14.41;66.40;100716.25;4831855;28;119688;-72
2022/09/19 00:57:04;;;;;;;20.13;2.63;;;;;;;14.40;66.29;100720.25;4850247;28;119801;-72
2022/09/19 00:59:35;;;;;;;18.50;2.88;;;;;;;14.42;66.85;100715.03;4833143;28;120412;-72
2022/09/19 01:02:04;;;;;;;22.03;2.80;;;;;;;14.44;66.57;100720.88;4834886;28;120145;-73
2022/09/19 01:04:35;;;;;;;10.73;2.25;;;;;;;14.44;67.01;100720.88;4849924;28;119753;-72
2022/09/19 01:07:43;;;;;;;22.08;2.95;;;;;;;14.42;66.92;100721.28;4832733;28;120672;-73
2022/09/19 01:10:24;;;;;;;13.10;2.30;;;;;;;14.40;67.04;100709.97;4811095;28;119593;-72
2022/09/19 01:12:59;;;;;;;10.52;2.25;;;;;;;14.43;66.51;100722.09;4832326;28;120174;-71
2022/09/19 01:16:04;;;;;;;9.98;2.17;;;;;;;14.42;66.61;100726.06;4817525;28;119595;-71
2022/09/19 01:18:39;;;;;;;18.27;2.70;;;;;;;14.37;66.42;100721.97;4821812;28;119810;-72
2022/09/19 01:21:40;;;;;;;20.67;2.77;;;;;;;14.37;66.91;100721.22;4832472;28;119620;-72
2022/09/19 01:24:28;;;;;;;13.03;2.13;;;;;;;14.36;66.88;100723.22;4813309;28;120205;-72
2022/09/19 01:27:09;;;;;;;18.77;2.97;;;;;;;14.35;66.94;100723.69;4820966;28;119413;-72
2022/09/19 01:29:58;;;;;;;17.40;2.97;;;;;;;14.38;67.03;100731.00;4807515;28;122367;-71
2022/09/19 01:32:33;;;;;;;17.60;2.60;;;;;;;14.38;66.73;100733.78;4833889;28;120351;-72
2022/09/19 01:35:27;;;;;;;14.75;2.67;;;;;;;14.37;66.81;100735.00;4810298;29;119551;-71
2022/09/19 01:38:09;;;;;;;14.88;2.65;;;;;;;14.35;66.50;100734.72;4828049;29;122616;-72
2022/09/19 01:40:37;;;;;;;18.35;2.60;;;;;;;14.29;66.15;100736.63;4826971;29;120221;-71
2022/09/19 01:43:12;;;;;;;15.87;2.50;;;;;;;14.25;66.44;100747.09;4818600;29;119471;-72
2022/09/19 01:45:40;;;;;;;16.37;2.67;;;;;;;14.19;66.42;100732.41;4834895;28;119954;-72
2022/09/19 01:48:24;;;;;;;29.75;3.70;;;;;;;14.15;66.72;100740.88;4806653;29;119817;-72
2022/09/19 01:51:18;;;;;;;13.15;2.63;;;;;;;14.12;67.07;100745.34;4838031;28;119819;-71
2022/09/19 01:54:06;;;;;;;14.68;2.65;;;;;;;14.13;67.27;100746.88;4854148;28;119783;-72
2022/09/19 01:57:19;;;;;;;11.63;2.60;;;;;;;14.12;66.88;100741.81;4828952;28;119947;-72
2022/09/19 01:59:54;;;;;;;18.80;2.73;;;;;;;14.16;67.59;100749.91;4834906;28;120227;-72
2022/09/19 02:02:21;;;;;;;19.33;2.97;;;;;;;14.16;67.31;100747.91;4836277;28;119891;-71
2022/09/19 02:04:56;;;;;;;17.50;2.73;;;;;;;14.15;67.12;100749.16;4840805;28;120172;-72
2022/09/19 02:07:49;;;;;;;14.80;2.70;;;;;;;14.20;67.27;100756.78;4808717;28;120371;-72
2022/09/19 02:10:27;;;;;;;25.35;3.33;;;;;;;14.15;67.42;100740.88;4820315;28;119688;-72
2022/09/19 02:12:57;;;;;;;19.87;2.70;;;;;;;14.19;67.35;100758.00;4851584;28;119481;-72
2022/09/19 02:15:49;;;;;;;28.05;3.47;;;;;;;14.19;67.35;100760.00;4839320;28;120127;-73
2022/09/19 02:18:43;;;;;;;21.13;2.80;;;;;;;14.19;67.43;100760.75;4833706;28;119803;-73
2022/09/19 02:21:18;;;;;;;30.65;3.42;;;;;;;14.21;67.38;100761.06;4834989;28;119930;-71
2022/09/19 02:23:55;;;;;;;15.93;2.53;;;;;;;14.18;67.02;100762.00;4852156;28;119461;-72
2022/09/19 02:26:22;;;;;;;17.15;2.85;;;;;;;14.11;67.13;100760.38;4834452;28;119692;-72
2022/09/19 02:29:01;;;;;;;17.38;2.60;;;;;;;14.10;66.95;100763.59;4816973;29;121264;-72
2022/09/19 02:31:30;;;;;;;16.48;2.75;;;;;;;14.09;67.24;100765.59;4848171;28;119705;-73
2022/09/19 02:33:59;;;;;;;13.73;2.45;;;;;;;14.09;67.06;100760.09;4829298;29;120016;-72
2022/09/19 02:36:59;;;;;;;22.85;3.17;;;;;;;14.09;67.52;100762.09;4830112;28;120156;-72
2022/09/19 02:39:33;;;;;;;32.83;4.20;;;;;;;14.09;67.36;100768.38;4855540;28;119957;-72
2022/09/19 02:42:35;;;;;;;17.63;3.40;;;;;;;14.05;67.20;100773.31;4836424;28;119772;-72
2022/09/19 02:45:07;;;;;;;18.58;3.50;;;;;;;14.04;66.78;100768.25;4831967;28;120029;-72
2022/09/19 02:48:09;;;;;;;15.77;4.00;;;;;;;14.01;66.93;100769.97;4744550;29;119936;-72
2022/09/19 02:50:47;;;;;;;25.15;3.92;;;;;;;14.02;67.45;100768.72;4831607;28;119601;-72
2022/09/19 02:53:19;;;;;;;19.52;4.25;;;;;;;14.00;67.71;100764.94;4830895;28;120345;-72
2022/09/19 02:55:52;;;;;;;19.45;3.97;;;;;;;14.01;67.29;100766.44;4821528;28;120467;-72
2022/09/19 02:58:28;;;;;;;17.38;3.92;;;;;;;14.01;68.11;100772.72;4845373;28;119972;-71
2022/09/19 03:01:03;;;;;;;23.80;3.92;;;;;;;14.01;67.72;100767.22;4817971;28;120138;-72
2022/09/19 03:04:12;;;;;;;27.33;4.03;;;;;;;14.03;67.94;100770.25;4851945;28;119797;-72
2022/09/19 03:07:25;;;;;;;23.65;4.30;;;;;;;14.03;68.06;100775.78;4830394;28;120060;-72
2022/09/19 03:10:07;;;;;;;20.55;4.60;;;;;;;14.03;67.66;100778.53;4828901;28;119857;-72
2022/09/19 03:12:50;;;;;;;19.70;4.50;;;;;;;14.05;67.75;100784.34;4851087;28;120086;-72
2022/09/19 03:15:22;;;;;;;24.30;4.95;;;;;;;14.06;67.87;100780.34;4832477;28;119807;-71
2022/09/19 03:17:50;;;;;;;19.57;4.57;;;;;;;14.04;67.68;100785.56;4852237;28;119376;-72
2022/09/19 03:20:19;;;;;;;36.00;5.75;;;;;;;14.02;68.00;100776.25;4850410;28;120032;-71
2022/09/19 03:22:45;;;;;;;26.52;5.00;;;;;;;14.04;68.20;100782.81;4834790;28;119943;-72
2022/09/19 03:25:14;;;;;;;22.15;4.97;;;;;;;14.05;68.09;100789.09;4836074;28;119903;-73
2022/09/19 03:27:40;;;;;;;23.95;4.90;;;;;;;14.02;68.03;100782.53;4819272;28;119236;-72
2022/09/19 03:30:10;;;;;;;19.40;4.55;;;;;;;14.08;67.56;100788.16;4819705;28;121121;-72
2022/09/19 03:32:37;;;;;;;22.48;4.90;;;;;;;14.08;67.74;100788.91;4828621;28;119874;-72
2022/09/19 03:35:05;;;;;;;35.77;6.30;;;;;;;14.06;67.94;100791.38;4837999;28;119997;-73
2022/09/19 03:37:34;;;;;;;25.98;5.20;;;;;;;14.10;68.18;100791.19;4850649;28;119588;-72
2022/09/19 03:40:02;;;;;;;29.03;5.27;;;;;;;14.11;68.56;100799.00;4818081;28;122017;-72
2022/09/19 03:42:29;;;;;;;28.88;5.20;;;;;;;14.10;67.94;100797.47;4837332;28;119767;-72
2022/09/19 03:44:55;;;;;;;34.75;5.78;;;;;;;14.15;68.37;100798.81;4833893;28;121324;-71
2022/09/19 03:47:21;;;;;;;19.65;4.90;;;;;;;14.16;68.05;100805.84;4836996;28;121185;-72
2022/09/19 03:49:51;;;;;;;31.70;6.32;;;;;;;14.17;67.61;100804.59;4818632;28;120136;-72
2022/09/19 03:52:18;;;;;;;27.67;5.70;;;;;;;14.18;67.67;100797.09;4832798;28;120240;-72
2022/09/19 03:54:44;;;;;;;35.38;6.10;;;;;;;14.06;67.67;100807.91;4852480;28;119641;-72
2022/09/19 03:57:12;;;;;;;16.83;4.90;;;;;;;14.01;67.81;100805.06;4834754;28;119840;-72
2022/09/19 03:59:41;;;;;;;36.83;6.38;;;;;;;13.94;67.61;100802.63;4818318;28;121893;-73
2022/09/19 04:02:10;;;;;;;53.75;6.72;;;;;;;13.91;67.44;100811.84;4834551;28;119974;-72
2022/09/19 04:04:37;;;;;;;25.75;5.38;;;;;;;13.85;68.00;100814.50;4852846;28;120091;-72
2022/09/19 04:07:05;;;;;;;43.00;6.18;;;;;;;13.80;68.07;100815.16;4833864;28;119943;-71
2022/09/19 04:09:31;;;;;;;30.65;5.47;;;;;;;13.71;68.12;100810.44;4822640;28;119842;-72
2022/09/19 04:12:02;;;;;;;27.40;4.78;;;;;;;13.69;68.25;100812.16;4818633;28;120597;-72
2022/09/19 04:14:29;;;;;;;22.85;4.65;;;;;;;13.66;68.36;100811.09;4823499;29;119838;-74
2022/09/19 04:16:57;;;;;;;31.23;5.03;;;;;;;13.63;68.56;100814.03;4834489;28;120100;-72
2022/09/19 04:19:26;;;;;;;29.10;5.38;;;;;;;13.61;68.95;100822.00;4823779;28;122275;-72
2022/09/19 04:22:07;;;;;;;;;;;;;;;13.56;68.45;100817.88;4850938;28;119880;-72
2022/09/19 04:24:49;;;;;;;46.83;5.45;;;;;;;13.56;68.73;100817.88;4826757;28;119668;-73
2022/09/19 04:27:38;;;;;;;37.10;6.00;;;;;;;13.56;68.91;100825.41;4826815;28;120334;-72
2022/09/19 04:30:05;;;;;;;33.90;5.60;;;;;;;13.55;69.27;100824.63;4833231;28;119752;-73
2022/09/19 04:32:31;;;;;;;32.72;5.35;;;;;;;13.56;69.34;100833.66;4853567;28;119393;-71
2022/09/19 04:34:59;;;;;;;32.50;5.25;;;;;;;13.55;69.83;100834.91;4832967;28;119784;-72
2022/09/19 04:37:26;;;;;;;30.25;4.65;;;;;;;13.54;69.62;100827.84;4832801;28;119782;-72
2022/09/19 04:40:02;;;;;;;28.38;4.38;;;;;;;13.51;69.73;100824.03;4833754;28;120293;-72
2022/09/19 04:42:32;;;;;;;21.70;4.45;;;;;;;13.46;69.75;100828.19;4832051;29;120021;-72
2022/09/19 04:44:58;;;;;;;25.83;5.53;;;;;;;13.51;69.86;100835.06;4834024;28;119874;-72
2022/09/19 04:47:38;;;;;;;17.95;4.10;;;;;;;13.51;70.21;100838.59;4851148;28;119596;-72
2022/09/19 04:50:08;;;;;;;19.42;4.30;;;;;;;13.52;69.81;100837.34;4835126;28;119705;-71
2022/09/19 04:52:37;;;;;;;51.08;6.10;;;;;;;13.51;70.44;100840.59;4838190;28;121732;-72
2022/09/19 04:55:03;;;;;;;33.83;5.20;;;;;;;13.54;70.24;100844.41;4839728;28;119477;-72
2022/09/19 04:57:29;;;;;;;25.58;4.55;;;;;;;13.54;70.29;100845.16;4849648;28;119850;-74
2022/09/19 05:00:01;;;;;;;21.45;5.25;;;;;;;13.52;70.23;100848.38;4847017;28;120439;-74
2022/09/19 05:02:29;;;;;;;34.75;5.70;;;;;;;13.55;70.71;100851.44;4828272;28;119583;-72
2022/09/19 05:04:55;;;;;;;25.58;5.00;;;;;;;13.59;70.83;100855.53;4848123;28;119500;-72
2022/09/19 05:07:33;;;;;;;34.42;5.40;;;;;;;13.61;70.59;100853.06;4833054;28;121231;-73
2022/09/19 05:10:02;;;;;;;16.50;4.88;;;;;;;13.63;70.42;100855.38;4832419;28;120756;-72
2022/09/19 05:12:33;;;;;;;23.50;5.18;;;;;;;13.65;70.12;100859.19;4834169;28;119565;-72
2022/09/19 05:15:17;;;;;;;44.38;6.53;;;;;;;13.67;70.06;100858.72;4836289;28;120789;-72
2022/09/19 05:17:43;;;;;;;37.10;6.45;;;;;;;13.69;70.63;100864.50;4848413;28;120857;-72
2022/09/19 05:20:09;;;;;;;39.20;7.20;;;;;;;13.69;70.65;100865.28;4815858;28;119546;-72
2022/09/19 05:22:35;;;;;;;26.23;5.45;;;;;;;13.68;70.58;100860.22;4819298;28;120026;-72
2022/09/19 05:25:02;;;;;;;23.50;5.20;;;;;;;13.72;70.84;100871.84;4816403;28;120026;-71
2022/09/19 05:27:35;;;;;;;28.60;5.10;;;;;;;13.75;70.30;100873.69;4825031;28;119551;-71
2022/09/19 05:30:02;;;;;;;33.67;5.78;;;;;;;13.75;70.79;100870.94;4831515;28;119418;-73
2022/09/19 05:32:33;;;;;;;34.28;6.47;;;;;;;13.79;71.18;100868.78;4818594;28;120476;-72
2022/09/19 05:35:07;;;;;;;40.60;6.18;;;;;;;13.83;70.89;100869.34;4834824;28;119602;-72
2022/09/19 05:37:49;;;;;;;28.10;6.00;;;;;;;13.88;71.41;100876.22;4836120;28;119988;-72
2022/09/19 05:40:36;;;;;;;34.00;6.32;;;;;;;13.93;71.01;100873.56;4826952;28;120264;-72
2022/09/19 05:43:11;;;;;;;37.58;6.45;;;;;;;13.98;71.51;100874.94;4832836;28;119703;-72
2022/09/19 05:45:37;;;;;;;23.95;5.60;;;;;;;14.00;71.39;100873.25;4848925;28;119497;-72
2022/09/19 05:48:05;;;;;;;25.08;6.18;;;;;;;14.08;71.40;100876.41;4832662;28;119966;-72
2022/09/19 05:50:38;;;;;;;30.13;6.72;;;;;;;14.09;71.61;100873.19;4831408;28;119755;-72
2022/09/19 05:55:49;;;;;;;25.67;6.30;;;;;;;14.23;71.17;100888.28;4836292;28;120186;-72
2022/09/19 05:58:27;;;;;;;29.20;12.65;;;;;;;14.26;71.53;100876.28;4834438;28;119933;-71
2022/09/19 06:01:09;;;;;;;41.80;7.50;;;;;;;14.33;71.99;100877.91;4835713;28;119702;-73
2022/09/19 06:03:35;;;;;;;27.95;5.80;;;;;;;14.39;71.52;100881.53;4849574;28;120155;-72
2022/09/19 06:06:13;;;;;;;34.45;6.07;;;;;;;14.48;71.49;100889.81;4818615;28;119928;-72
2022/09/19 06:08:42;;;;;;;42.97;6.38;;;;;;;14.52;72.08;100893.13;4816625;28;121324;-72
2022/09/19 06:11:09;;;;;;;23.48;5.28;;;;;;;14.58;71.78;100896.75;4815491;28;119551;-72
2022/09/19 06:16:21;;;;;;;29.08;4.93;;;;;;;14.70;71.22;100898.50;4843477;28;120226;-72
2022/09/19 06:19:09;;;;;;;17.40;4.28;;;;;;;14.71;71.35;100896.50;4827836;28;119804;-72
2022/09/19 06:21:35;;;;;;;35.75;4.68;;;;;;;14.71;71.04;100905.56;4842275;28;120131;-72
2022/09/19 06:24:03;;;;;;;19.98;4.05;;;;;;;14.71;71.08;100902.81;4833991;28;120186;-73
2022/09/19 06:26:29;;;;;;;34.83;4.82;;;;;;;14.72;70.83;100898.81;4833008;28;120415;-72
2022/09/19 06:28:55;;;;;;;35.65;4.97;;;;;;;14.73;70.88;100899.56;4817372;28;121789;-73
2022/09/19 06:31:39;;;;;;;21.75;4.22;;;;;;;14.68;70.73;100895.47;4824335;28;119801;-72
2022/09/19 06:34:16;;;;;;;28.60;4.35;;;;;;;14.68;70.75;100895.47;4834561;28;120051;-72
2022/09/19 06:36:56;;;;;;;29.98;4.93;;;;;;;14.71;70.90;100916.59;4821750;28;120262;-72
2022/09/19 06:39:22;;;;;;;17.50;4.40;;;;;;;14.73;70.63;100913.38;4834184;28;119549;-72
2022/09/19 06:42:11;;;;;;;24.13;5.38;;;;;;;14.76;70.63;100922.69;4820172;28;120136;-72
2022/09/19 06:44:50;;;;;;;24.38;6.60;;;;;;;14.81;70.82;100920.03;4849362;28;120003;-72
2022/09/19 06:47:38;;;;;;;29.23;5.93;;;;;;;14.88;70.86;100927.19;4837161;28;119998;-72
2022/09/19 06:50:16;;;;;;;33.53;6.97;;;;;;;14.94;71.42;100939.88;4832672;28;120235;-72
2022/09/19 06:52:56;;;;;;;69.68;8.80;;;;;;;15.01;71.47;100930.44;4847093;28;119777;-73
2022/09/19 06:55:25;;;;;;;28.52;6.90;;;;;;;15.07;71.31;100938.84;4816461;28;119951;-72
2022/09/19 06:57:57;;;;;;;23.73;5.65;;;;;;;15.11;71.13;100936.63;4847364;28;120138;-72
2022/09/19 07:00:24;;;;;;;33.28;6.05;;;;;;;15.18;71.24;100939.03;4830392;28;119918;-73
2022/09/19 07:02:54;;;;;;;36.47;5.72;;;;;;;15.25;71.40;100938.66;4829802;28;120411;-73
2022/09/19 07:05:23;;;;;;;27.23;5.27;;;;;;;15.28;71.48;100946.00;4831001;28;122126;-72
2022/09/19 07:08:06;;;;;;;24.48;5.07;;;;;;;15.33;71.39;100951.63;4835906;28;120436;-72
2022/09/19 07:10:33;;;;;;;21.55;4.63;;;;;;;15.40;71.25;100941.44;4847771;28;120425;-72
2022/09/19 07:13:01;;;;;;;38.38;5.90;;;;;;;15.59;71.30;100942.75;4849350;28;119548;-72
2022/09/19 07:15:33;;;;;;;25.02;5.05;;;;;;;15.72;71.31;100939.69;4808222;28;120031;-72
2022/09/19 07:18:19;;;;;;;31.00;5.22;;;;;;;15.87;71.10;100937.69;4757575;29;120240;-72
2022/09/19 07:20:49;;;;;;;31.17;4.95;;;;;;;16.01;70.53;100945.16;4748542;29;120330;-72
2022/09/19 07:23:18;;;;;;;37.95;4.93;;;;;;;16.14;70.47;100948.38;4791557;28;120664;-73
2022/09/19 07:26:04;;;;;;;32.60;4.50;;;;;;;16.29;70.04;100953.84;4840105;28;121669;-73
2022/09/19 07:28:32;;;;;;;25.00;4.03;;;;;;;16.40;69.72;100956.78;4816841;28;120055;-72
2022/09/19 07:31:00;;;;;;;25.67;4.18;;;;;;;16.51;69.77;100959.66;4850687;28;120149;-72
2022/09/19 07:33:28;;;;;;;28.75;3.80;;;;;;;16.61;69.10;100962.31;4827986;28;119857;-72
2022/09/19 07:35:55;;;;;;;34.28;3.70;;;;;;;16.70;68.64;100959.41;4842555;28;119846;-73
2022/09/19 07:38:22;;;;;;;43.80;4.28;;;;;;;16.77;68.10;100962.53;4814723;28;120321;-72
2022/09/19 07:41:08;;;;;;;38.33;4.05;;;;;;;16.87;67.85;100968.69;4845676;28;120047;-72
2022/09/19 07:44:03;;;;;;;26.50;3.65;;;;;;;16.93;67.69;100969.50;4835794;28;119555;-72
2022/09/19 07:47:26;;;;;;;18.98;2.85;;;;;;;17.01;67.88;100975.38;4807222;28;119735;-72
2022/09/19 07:49:54;;;;;;;23.80;3.03;;;;;;;17.09;66.65;100974.47;4835869;28;120429;-73
2022/09/19 07:52:37;;;;;;;43.80;4.70;;;;;;;17.18;66.31;100982.63;4840357;28;120174;-72
2022/09/19 07:55:05;;;;;;;13.50;2.58;;;;;;;17.27;66.05;100981.72;4839964;28;121144;-73
2022/09/19 07:57:35;;;;;;;24.70;3.30;;;;;;;17.35;66.06;100979.25;4831059;28;120284;-72
2022/09/19 08:00:01;;;;;;;26.90;2.80;;;;;;;17.47;66.04;100980.88;4804586;28;120889;-72
2022/09/19 08:02:29;;;;;;;26.60;2.78;;;;;;;17.57;66.07;100978.69;4830111;28;120143;-73
2022/09/19 08:04:56;;;;;;;12.27;1.98;;;;;;;17.60;66.14;100984.03;4812078;28;119548;-72
2022/09/19 08:07:23;;;;;;;17.65;2.03;;;;;;;17.68;66.41;100984.34;4846007;28;120242;-72
2022/09/19 08:09:49;;;;;;;23.85;2.95;;;;;;;17.76;66.14;100991.00;4846692;28;119907;-72
2022/09/19 08:12:19;;;;;;;18.90;2.08;;;;;;;17.86;64.85;101000.66;4830605;28;119831;-72
2022/09/19 08:14:56;;;;;;;24.27;2.15;;;;;;;17.90;64.81;100995.63;4834600;28;120649;-72
2022/09/19 08:17:23;;;;;;;25.30;2.75;;;;;;;18.01;65.02;101000.50;4834740;28;119661;-72
2022/09/19 08:19:50;;;;;;;17.77;2.08;;;;;;;18.10;64.12;101000.31;4827504;28;120581;-72
2022/09/19 08:22:32;;;;;;;26.40;2.65;;;;;;;18.16;63.95;100998.31;4835222;28;119839;-73
2022/09/19 08:25:03;;;;;;;31.75;3.10;;;;;;;18.23;64.11;100995.09;4832229;28;120312;-73
2022/09/19 08:27:30;;;;;;;37.65;3.60;;;;;;;18.32;63.73;100996.91;4835883;28;120010;-72
2022/09/19 08:29:58;;;;;;;23.40;1.95;;;;;;;18.40;63.75;101001.50;4830783;28;120033;-72
2022/09/19 08:32:25;;;;;;;12.68;1.38;;;;;;;18.47;62.91;101005.84;4829383;28;119302;-72
2022/09/19 08:34:52;;;;;;;11.65;1.70;;;;;;;18.52;61.97;101007.88;4836709;28;120461;-72
2022/09/19 08:37:18;;;;;;;37.90;3.53;;;;;;;18.56;62.62;101002.09;4828702;28;120116;-72
2022/09/19 08:40:15;;;;;;;40.92;3.35;;;;;;;18.62;62.08;101006.44;4833290;28;120067;-72
2022/09/19 08:42:58;;;;;;;32.47;4.20;;;;;;;18.67;62.31;101005.69;4814425;28;119672;-72
2022/09/19 08:46:10;;;;;;;33.85;2.95;;;;;;;18.70;61.86;101015.06;4831978;28;120399;-72
2022/09/19 08:49:01;;;;;;;29.70;2.05;;;;;;;18.74;61.67;101012.03;4843469;28;120183;-74
2022/09/19 08:52:07;;;;;;;28.40;2.58;;;;;;;18.81;61.56;101014.34;4828673;28;119916;-72
2022/09/19 08:54:40;;;;;;;35.30;3.55;;;;;;;18.86;61.58;101014.34;4833375;28;120895;-72
2022/09/19 08:57:18;;;;;;;37.00;3.15;;;;;;;18.91;60.22;101019.16;4814664;28;120246;-72
2022/09/19 08:59:50;;;;;;;24.25;2.28;;;;;;;18.92;59.99;101019.94;4816556;28;120289;-72
2022/09/19 09:02:54;;;;;;;17.70;1.80;;;;;;;18.96;60.00;101026.78;4831880;28;121888;-72
2022/09/19 09:05:34;;;;;;;34.80;3.15;;;;;;;18.95;60.04;101025.28;4828003;28;120903;-72
2022/09/19 09:08:03;;;;;;;49.95;2.35;;;;;;;19.00;60.00;101035.66;4837578;28;120068;-72
2022/09/19 09:11:23;;;;;;;23.05;2.67;;;;;;;19.06;58.98;101032.13;4835150;28;120124;-74
2022/09/19 09:14:50;;;;;;;15.88;1.95;;;;;;;19.08;58.76;101032.38;4795510;29;119744;-73
2022/09/19 09:17:42;;;;;;;20.33;1.70;;;;;;;19.17;59.08;101032.16;4808878;29;119683;-72
2022/09/19 09:20:27;;;;;;;8.63;0.95;;;;;;;19.24;58.88;101034.44;4806597;29;120389;-72
2022/09/19 09:23:16;;;;;;;5.75;0.98;;;;;;;19.30;58.91;101030.41;4816811;29;120296;-74
2022/09/19 09:26:02;;;;;;;26.98;2.00;;;;;;;19.32;58.38;101029.91;4801527;29;119930;-73
2022/09/19 09:28:38;;;;;;;13.13;1.25;;;;;;;19.31;57.66;101029.16;4807747;29;120235;-73
2022/09/19 09:31:27;;;;;;;17.48;1.33;;;;;;;19.34;57.27;101035.72;4804699;29;121446;-73
2022/09/19 09:34:03;;;;;;;57.40;3.17;;;;;;;19.39;57.80;101032.19;4805463;29;120231;-73
2022/09/19 09:36:36;;;;;;;52.55;2.85;;;;;;;19.46;58.50;101031.72;4827454;28;119728;-73
2022/09/19 09:39:16;;;;;;;19.77;2.10;;;;;;;19.50;57.13;101035.00;4819138;28;121382;-73
2022/09/19 09:41:47;;;;;;;11.35;1.25;;;;;;;19.49;56.13;101033.47;4813125;28;122093;-72
2022/09/19 09:44:20;;;;;;;18.67;1.35;;;;;;;19.56;56.42;101032.25;4831660;28;120381;-73
2022/09/19 09:47:09;;;;;;;36.17;2.33;;;;;;;19.61;56.69;101029.47;4829073;28;120090;-73
2022/09/19 09:49:38;;;;;;;25.13;2.00;;;;;;;19.62;56.12;101028.19;4830397;28;120239;-72
2022/09/19 09:52:20;;;;;;;7.93;0.85;;;;;;;19.62;54.92;101030.22;4818927;28;120021;-73
2022/09/19 09:58:09;;;;;;;39.45;2.25;;;;;;;19.74;56.28;101025.44;4839964;28;120382;-73
2022/09/19 10:03:43;;;;;;;30.33;1.80;;;;;;;19.81;55.57;101013.78;4849488;28;120283;-81
2022/09/19 10:06:46;;;;;;;13.40;1.52;;;;;;;19.89;55.60;101020.38;4836576;28;119960;-79
2022/09/19 10:09:19;;;;;;;34.92;2.63;;;;;;;19.87;55.60;101011.75;4854737;28;119876;-78
2022/09/19 10:12:07;;;;;;;9.23;1.10;;;;;;;19.92;55.04;101013.78;4852004;28;121528;-78
2022/09/19 10:14:38;;;;;;;31.73;2.35;;;;;;;19.93;55.31;101016.06;4839741;28;119576;-72
2022/09/19 10:17:39;;;;;;;38.83;2.33;;;;;;;19.91;54.55;101018.59;4827144;28;120673;-73
2022/09/19 10:20:20;;;;;;;28.83;1.73;;;;;;;19.90;54.83;101016.31;4822365;28;120576;-72
2022/09/19 10:22:46;;;;;;;11.23;1.33;;;;;;;19.91;55.30;101017.84;4856438;28;119617;-73
2022/09/19 10:25:16;;;;;;;31.60;2.78;;;;;;;19.92;54.48;101002.66;4838238;28;119697;-72
2022/09/19 10:27:45;;;;;;;29.10;2.42;;;;;;;19.98;53.85;101014.53;4842537;28;120011;-73
2022/09/19 10:30:29;;;;;;;18.80;1.45;;;;;;;20.02;54.13;101005.94;4841170;28;120154;-73
2022/09/19 10:33:16;;;;;;;16.65;1.52;;;;;;;20.03;54.07;101021.38;4838346;28;120450;-73
2022/09/19 10:35:58;;;;;;;4.50;0.63;;;;;;;19.95;52.14;101018.34;4828620;28;120175;-72
2022/09/19 10:38:27;;;;;;;18.40;1.52;;;;;;;19.91;52.42;101021.38;4836704;28;119634;-73
2022/09/19 10:40:53;;;;;;;13.05;1.17;;;;;;;19.87;53.00;101020.09;4860374;28;119525;-72
2022/09/19 10:43:31;;;;;;;29.65;1.23;;;;;;;19.88;53.70;101019.63;4838128;28;119641;-72
2022/09/19 10:46:06;;;;;;;14.38;1.55;;;;;;;19.93;52.94;101030.00;4819871;28;122245;-73
2022/09/19 10:48:38;;;;;;;38.60;2.97;;;;;;;19.96;52.72;101033.78;4840158;28;121050;-72
2022/09/19 10:51:12;;;;;;;58.33;4.00;;;;;;;19.97;52.89;101029.72;4824012;28;121146;-72
2022/09/19 10:53:42;;;;;;;31.45;2.17;;;;;;;20.01;53.26;101041.38;4796433;28;121054;-72
2022/09/19 10:56:25;;;;;;;33.05;2.75;;;;;;;20.07;53.27;101036.53;4810623;28;120189;-72
2022/09/19 10:59:22;;;;;;;14.77;1.52;;;;;;;20.13;53.23;101048.47;4832303;28;119921;-72
2022/09/19 11:02:09;;;;;;;29.43;2.13;;;;;;;20.18;53.94;101056.03;4846525;28;119947;-72
2022/09/19 11:04:36;;;;;;;9.90;1.33;;;;;;;20.24;53.74;101053.25;4821950;28;119724;-72
2022/09/19 11:07:16;;;;;;;22.58;2.17;;;;;;;20.32;53.93;101061.81;4848539;28;119726;-72
2022/09/19 11:09:44;;;;;;;31.75;2.28;;;;;;;20.38;53.69;101055.00;4832182;28;119929;-72
2022/09/19 11:12:16;;;;;;;12.90;1.20;;;;;;;20.42;52.88;101054.75;4844060;28;120152;-73
2022/09/19 11:14:42;;;;;;;12.57;1.20;;;;;;;20.45;53.35;101059.31;4830153;28;120160;-73
2022/09/19 11:17:18;;;;;;;10.27;0.90;;;;;;;20.54;53.67;101061.81;4832696;28;119991;-73
2022/09/19 11:20:29;;;;;;;13.88;1.23;;;;;;;20.65;53.22;101061.78;4845538;28;120137;-73
2022/09/19 11:23:52;;;;;;;22.63;1.90;;;;;;;20.81;52.77;101060.97;4757967;29;120278;-72
2022/09/19 11:26:58;;;;;;;6.55;0.77;;;;;;;20.91;51.98;101052.31;4830909;28;120329;-73
2022/09/19 11:29:41;;;;;;;11.77;1.33;;;;;;;20.95;52.05;101050.78;4830098;28;119995;-72
2022/09/19 11:32:32;;;;;;;16.02;1.77;;;;;;;21.03;51.65;101056.56;4848208;28;120060;-73
2022/09/19 11:35:28;;;;;;;26.80;1.98;;;;;;;21.07;51.77;101043.13;4832389;28;120102;-73
2022/09/19 11:38:04;;;;;;;33.42;2.13;;;;;;;21.14;51.74;101054.50;4840894;28;120409;-72
2022/09/19 11:41:02;;;;;;;13.65;1.23;;;;;;;21.17;50.79;101047.13;4831797;28;120165;-73
2022/09/19 11:43:52;;;;;;;17.23;1.40;;;;;;;21.14;51.11;101050.94;4816699;28;121421;-73
2022/09/19 11:46:30;;;;;;;6.82;0.93;;;;;;;21.02;50.30;101050.22;4817845;28;121064;-73
2022/09/19 11:49:15;;;;;;;10.77;0.95;;;;;;;20.92;50.25;101045.47;4831718;28;120135;-72
2022/09/19 11:51:50;;;;;;;;;;;;;;;20.82;50.62;101047.81;4834698;28;120094;-72
2022/09/19 11:54:33;;;;;;;20.95;1.15;;;;;;;20.84;50.30;101043.22;4831577;28;119696;-72
2022/09/19 11:57:16;;;;;;;22.85;1.85;;;;;;;20.88;50.30;101033.84;4845114;28;119721;-73
2022/09/19 11:59:45;;;;;;;8.73;0.90;;;;;;;20.95;50.64;101041.66;4828209;28;120554;-72
2022/09/19 12:02:41;;;;;;;14.20;1.58;;;;;;;21.00;50.58;101043.66;4832059;28;120806;-72
2022/09/19 12:05:37;;;;;;;20.27;1.20;;;;;;;20.84;49.70;101034.88;4843419;28;119771;-72
2022/09/19 12:08:44;;;;;;;21.00;1.40;;;;;;;20.63;51.10;101044.81;4822500;28;120525;-72